createdAt,value
2019-06-27T00:00:26.301Z,25.84
2019-06-27T00:02:55.433Z,25.79
2019-06-27T00:05:24.496Z,25.67
2019-06-27T00:07:53.649Z,25.55
2019-06-27T00:10:22.777Z,25.43
2019-06-27T00:12:51.863Z,25.33
2019-06-27T00:15:20.974Z,25.28
2019-06-27T00:17:50.097Z,25.27
2019-06-27T00:20:19.255Z,25.20
2019-06-27T00:22:48.515Z,25.01
2019-06-27T00:25:17.658Z,24.89
2019-06-27T00:27:46.839Z,24.84
2019-06-27T00:30:16.238Z,24.74
2019-06-27T00:32:45.452Z,24.65
2019-06-27T00:35:14.587Z,24.58
2019-06-27T00:37:43.704Z,24.53
2019-06-27T00:40:12.815Z,24.54
2019-06-27T00:42:41.919Z,24.54
2019-06-27T00:45:11.041Z,24.54
2019-06-27T00:47:40.227Z,24.54
2019-06-27T00:50:10.093Z,24.54
2019-06-27T00:52:39.236Z,24.56
2019-06-27T00:55:08.447Z,24.49
2019-06-27T00:57:37.600Z,24.39
2019-06-27T01:00:06.772Z,24.32
2019-06-27T01:02:35.907Z,24.27
2019-06-27T01:05:05.580Z,24.21
2019-06-27T01:07:34.721Z,24.15
2019-06-27T01:10:04.025Z,24.05
2019-06-27T01:12:33.185Z,23.99
2019-06-27T01:15:02.437Z,23.88
2019-06-27T01:17:31.621Z,23.81
2019-06-27T01:20:00.796Z,23.77
2019-06-27T01:22:29.976Z,23.76
2019-06-27T01:24:59.090Z,23.70
2019-06-27T01:27:30.207Z,23.65
2019-06-27T01:29:59.192Z,23.62
2019-06-27T01:32:28.487Z,23.57
2019-06-27T01:34:57.580Z,23.48
2019-06-27T01:37:26.777Z,23.47
2019-06-27T01:39:55.908Z,23.40
2019-06-27T01:42:25.152Z,23.33
2019-06-27T01:44:58.526Z,23.29
2019-06-27T01:47:27.695Z,23.24
2019-06-27T01:49:56.818Z,23.13
2019-06-27T01:52:25.985Z,23.07
2019-06-27T01:54:55.101Z,23.06
2019-06-27T01:57:24.176Z,23.01
2019-06-27T01:59:53.279Z,22.94
2019-06-27T02:02:22.561Z,22.95
2019-06-27T02:04:51.657Z,22.93
2019-06-27T02:07:20.819Z,22.95
2019-06-27T02:09:49.962Z,22.99
2019-06-27T02:12:19.079Z,23.04
2019-06-27T02:14:48.265Z,23.08
2019-06-27T02:17:17.359Z,23.10
2019-06-27T02:19:46.541Z,23.08
2019-06-27T02:22:16.011Z,23.03
2019-06-27T02:24:45.143Z,22.99
2019-06-27T02:27:14.262Z,23.01
2019-06-27T02:29:43.360Z,23.00
2019-06-27T02:32:12.621Z,23.01
2019-06-27T02:34:41.819Z,22.89
2019-06-27T02:37:10.994Z,22.86
2019-06-27T02:39:40.861Z,22.81
2019-06-27T02:42:10.341Z,22.77
2019-06-27T02:44:39.913Z,22.82
2019-06-27T02:47:10.328Z,22.82
2019-06-27T02:49:42.025Z,22.81
2019-06-27T02:52:11.949Z,22.81
2019-06-27T02:54:41.966Z,22.83
2019-06-27T02:57:11.268Z,22.83
2019-06-27T02:59:40.977Z,22.86
2019-06-27T03:02:10.413Z,22.84
2019-06-27T03:04:39.705Z,22.82
2019-06-27T03:07:08.866Z,22.79
2019-06-27T03:09:37.979Z,22.79
2019-06-27T03:12:07.062Z,22.80
2019-06-27T03:14:36.448Z,22.81
2019-06-27T03:17:05.650Z,22.81
2019-06-27T03:19:34.887Z,22.79
2019-06-27T03:22:05.790Z,22.83
2019-06-27T03:24:36.019Z,22.85
2019-06-27T03:27:05.112Z,22.79
2019-06-27T03:29:34.212Z,22.79
2019-06-27T03:32:03.313Z,22.77
2019-06-27T03:34:32.489Z,22.77
2019-06-27T03:37:01.554Z,22.74
2019-06-27T03:39:30.712Z,22.77
2019-06-27T03:41:59.825Z,22.72
2019-06-27T03:44:29.049Z,22.67
2019-06-27T03:46:58.118Z,22.63
2019-06-27T03:49:27.255Z,22.63
2019-06-27T03:51:56.400Z,22.58
2019-06-27T03:54:25.521Z,22.60
2019-06-27T03:56:54.637Z,22.59
2019-06-27T03:59:23.729Z,22.51
2019-06-27T04:01:52.839Z,22.45
2019-06-27T04:04:22.002Z,22.50
2019-06-27T04:06:51.131Z,22.52
2019-06-27T04:09:20.223Z,22.55
2019-06-27T04:11:49.315Z,22.55
2019-06-27T04:14:18.431Z,22.53
2019-06-27T04:16:49.285Z,22.63
2019-06-27T04:19:18.513Z,22.68
2019-06-27T04:21:47.559Z,22.69
2019-06-27T04:24:19.453Z,22.65
2019-06-27T04:26:48.716Z,22.61
2019-06-27T04:29:33.061Z,22.60
2019-06-27T04:31:48.763Z,22.64
2019-06-27T04:34:19.932Z,22.67
2019-06-27T04:36:49.016Z,22.68
2019-06-27T04:39:18.205Z,22.70
2019-06-27T04:41:47.369Z,22.77
2019-06-27T04:44:16.644Z,22.78
2019-06-27T04:46:45.869Z,22.72
2019-06-27T04:49:15.138Z,22.69
2019-06-27T04:51:44.356Z,22.67
2019-06-27T04:54:13.666Z,22.60
2019-06-27T04:56:42.909Z,22.60
2019-06-27T04:59:12.066Z,22.57
2019-06-27T05:01:41.295Z,22.55
2019-06-27T05:04:10.429Z,22.50
2019-06-27T05:06:39.589Z,22.46
2019-06-27T05:09:08.733Z,22.43
2019-06-27T05:11:37.941Z,22.40
2019-06-27T05:14:07.048Z,22.32
2019-06-27T05:16:36.355Z,22.37
2019-06-27T05:19:05.504Z,22.52
2019-06-27T05:21:34.616Z,22.69
2019-06-27T05:24:03.761Z,22.75
2019-06-27T05:26:32.931Z,22.88
2019-06-27T05:29:02.046Z,23.02
2019-06-27T05:31:31.189Z,23.03
2019-06-27T05:34:00.467Z,23.10
2019-06-27T05:36:29.613Z,23.10
2019-06-27T05:38:58.752Z,23.17
2019-06-27T05:41:27.802Z,23.20
2019-06-27T05:43:57.023Z,23.23
2019-06-27T05:46:26.160Z,23.29
2019-06-27T05:48:55.423Z,23.48
2019-06-27T05:51:24.527Z,23.66
2019-06-27T05:53:53.718Z,23.74
2019-06-27T05:56:23.003Z,23.84
2019-06-27T05:58:52.388Z,23.92
2019-06-27T06:01:21.623Z,24.08
2019-06-27T06:03:50.756Z,24.31
2019-06-27T06:06:19.873Z,24.78
2019-06-27T06:08:49.131Z,25.32
2019-06-27T06:11:18.226Z,25.59
2019-06-27T06:13:47.336Z,25.87
2019-06-27T06:16:16.428Z,26.30
2019-06-27T06:18:45.542Z,26.71
2019-06-27T06:21:14.782Z,27.15
2019-06-27T06:23:43.955Z,27.63
2019-06-27T06:26:13.145Z,28.12
2019-06-27T06:28:42.384Z,28.40
2019-06-27T06:31:13.678Z,28.45
2019-06-27T06:33:42.793Z,28.71
2019-06-27T06:36:11.875Z,28.71
2019-06-27T06:38:41.074Z,29.44
2019-06-27T06:41:10.236Z,29.44
2019-06-27T06:43:39.738Z,29.72
2019-06-27T06:46:08.910Z,29.97
2019-06-27T06:48:38.147Z,30.17
2019-06-27T06:51:07.258Z,30.40
2019-06-27T06:53:37.250Z,30.73
2019-06-27T06:56:09.037Z,30.91
2019-06-27T06:58:38.169Z,31.11
2019-06-27T07:01:07.375Z,31.44
2019-06-27T07:03:36.483Z,31.71
2019-06-27T07:06:05.636Z,31.65
2019-06-27T07:08:37.358Z,31.68
2019-06-27T07:11:06.500Z,31.88
2019-06-27T07:13:35.674Z,32.23
2019-06-27T07:16:05.258Z,32.45
2019-06-27T07:18:34.631Z,32.77
2019-06-27T07:21:03.829Z,33.09
2019-06-27T07:23:32.941Z,33.52
2019-06-27T07:26:02.145Z,33.91
2019-06-27T07:28:31.468Z,34.16
2019-06-27T07:31:08.264Z,34.23
2019-06-27T07:33:31.690Z,34.26
2019-06-27T07:36:00.816Z,34.26
2019-06-27T07:38:30.152Z,34.37
2019-06-27T07:40:59.376Z,34.39
2019-06-27T07:43:28.568Z,34.49
2019-06-27T07:45:57.899Z,34.72
2019-06-27T07:48:27.080Z,35.07
2019-06-27T07:50:56.336Z,35.48
2019-06-27T07:53:25.467Z,35.81
2019-06-27T07:55:54.867Z,36.01
2019-06-27T07:58:23.982Z,36.30
2019-06-27T08:00:53.294Z,36.69
2019-06-27T08:03:22.425Z,37.15
2019-06-27T08:05:51.630Z,37.51
2019-06-27T08:08:20.890Z,37.83
2019-06-27T08:10:50.179Z,37.85
2019-06-27T08:13:19.322Z,37.65
2019-06-27T08:15:48.681Z,37.57
2019-06-27T08:18:18.254Z,37.64
2019-06-27T08:20:47.490Z,37.81
2019-06-27T08:23:16.840Z,38.23
2019-06-27T08:25:46.232Z,38.47
2019-06-27T08:28:15.454Z,38.57
2019-06-27T08:34:12.238Z,39.15
2019-06-27T08:36:41.481Z,39.75
2019-06-27T08:39:10.807Z,39.97
2019-06-27T08:41:40.037Z,40.39
2019-06-27T08:44:09.298Z,40.58
2019-06-27T08:46:38.472Z,40.74
2019-06-27T08:49:07.704Z,40.99
2019-06-27T08:51:36.888Z,41.21
2019-06-27T08:54:06.061Z,41.60
2019-06-27T08:56:35.429Z,41.74
2019-06-27T08:59:04.585Z,42.02
2019-06-27T09:01:33.902Z,42.25
2019-06-27T09:04:03.065Z,42.45
2019-06-27T09:06:32.242Z,42.66
2019-06-27T09:09:01.668Z,43.01
2019-06-27T09:11:34.488Z,43.40
2019-06-27T09:14:03.452Z,43.51
2019-06-27T09:16:32.913Z,43.62
2019-06-27T09:19:02.089Z,43.04
2019-06-27T09:21:31.368Z,42.88
2019-06-27T09:24:00.500Z,42.68
2019-06-27T09:26:29.831Z,42.80
2019-06-27T09:28:59.317Z,43.32
2019-06-27T09:31:28.566Z,43.59
2019-06-27T09:33:57.953Z,43.63
2019-06-27T09:36:27.195Z,43.98
2019-06-27T09:38:56.520Z,44.36
2019-06-27T09:41:25.842Z,44.81
2019-06-27T09:43:55.279Z,45.21
2019-06-27T09:46:24.600Z,45.67
2019-06-27T09:48:53.820Z,45.99
2019-06-27T09:51:23.076Z,46.16
2019-06-27T09:53:52.371Z,46.40
2019-06-27T09:56:21.526Z,46.71
2019-06-27T09:58:50.665Z,46.84
2019-06-27T10:01:19.890Z,47.09
2019-06-27T10:03:49.167Z,47.33
2019-06-27T10:06:18.353Z,47.54
2019-06-27T10:08:47.543Z,47.47
2019-06-27T10:11:16.738Z,47.46
2019-06-27T10:13:45.895Z,47.51
2019-06-27T10:16:15.173Z,47.86
2019-06-27T10:18:44.433Z,48.20
2019-06-27T10:21:13.710Z,48.68
2019-06-27T10:23:42.873Z,49.09
2019-06-27T10:26:12.180Z,49.48
2019-06-27T10:28:41.417Z,49.82
2019-06-27T10:31:10.744Z,50.33
2019-06-27T10:33:39.911Z,50.62
2019-06-27T10:36:09.082Z,50.74
2019-06-27T10:38:38.198Z,50.74
2019-06-27T10:41:07.435Z,50.95
2019-06-27T10:43:36.667Z,51.03
2019-06-27T10:46:05.834Z,51.07
2019-06-27T10:48:35.045Z,51.31
2019-06-27T10:51:04.241Z,51.52
2019-06-27T10:53:33.470Z,51.37
2019-06-27T10:56:02.663Z,51.09
2019-06-27T10:58:31.831Z,50.80
2019-06-27T11:01:01.001Z,50.52
2019-06-27T11:03:30.155Z,50.45
2019-06-27T11:05:59.249Z,49.83
2019-06-27T11:08:28.386Z,49.39
2019-06-27T11:10:57.668Z,49.46
2019-06-27T11:13:26.826Z,49.56
2019-06-27T11:15:56.121Z,49.41
2019-06-27T11:18:25.191Z,49.03
2019-06-27T11:20:54.268Z,48.57
2019-06-27T11:23:23.367Z,47.88
2019-06-27T11:25:52.386Z,47.31
2019-06-27T11:28:21.515Z,46.30
2019-06-27T11:30:50.579Z,45.25
2019-06-27T11:33:31.861Z,44.25
2019-06-27T11:35:50.567Z,43.28
2019-06-27T11:38:19.717Z,42.27
2019-06-27T11:40:48.801Z,41.17
2019-06-27T11:43:17.911Z,40.17
2019-06-27T11:45:46.990Z,39.15
2019-06-27T11:48:16.044Z,38.38
2019-06-27T11:50:45.146Z,37.77
2019-06-27T11:53:14.199Z,37.25
2019-06-27T11:55:43.263Z,36.75
2019-06-27T11:58:12.359Z,36.27
2019-06-27T12:00:41.537Z,36.00
2019-06-27T12:03:10.574Z,35.71
2019-06-27T12:05:39.681Z,35.54
2019-06-27T12:08:11.068Z,35.38
2019-06-27T12:10:39.560Z,35.19
2019-06-27T12:13:08.617Z,34.99
2019-06-27T12:15:37.726Z,34.84
2019-06-27T12:18:06.985Z,34.68
2019-06-27T12:20:36.124Z,34.63
2019-06-27T12:23:05.226Z,34.59
2019-06-27T12:25:34.391Z,34.53
2019-06-27T12:28:03.668Z,34.48
2019-06-27T12:30:32.833Z,34.43
2019-06-27T12:33:02.022Z,34.39
2019-06-27T12:35:31.212Z,34.25
2019-06-27T12:38:00.314Z,34.13
2019-06-27T12:40:29.464Z,34.03
2019-06-27T12:42:58.568Z,33.98
2019-06-27T12:45:27.718Z,33.84
2019-06-27T12:47:56.738Z,33.69
2019-06-27T12:50:25.954Z,33.61
2019-06-27T12:52:55.028Z,33.63
2019-06-27T12:55:24.101Z,33.68
2019-06-27T12:57:53.433Z,33.70
2019-06-27T13:00:22.655Z,33.69
2019-06-27T13:02:51.832Z,33.71
2019-06-27T13:05:20.952Z,33.73
2019-06-27T13:07:50.112Z,33.74
2019-06-27T13:10:19.210Z,33.75
2019-06-27T13:12:48.355Z,33.75
2019-06-27T13:15:17.524Z,33.65
2019-06-27T13:17:46.714Z,33.63
2019-06-27T13:20:15.875Z,33.64
2019-06-27T13:22:45.066Z,33.66
2019-06-27T13:25:14.179Z,33.72
2019-06-27T13:27:43.363Z,33.77
2019-06-27T13:30:12.477Z,33.79
2019-06-27T13:32:41.656Z,33.74
2019-06-27T13:35:10.750Z,33.65
2019-06-27T13:37:40.000Z,33.53
2019-06-27T13:40:09.162Z,33.43
2019-06-27T13:42:38.848Z,33.35
2019-06-27T13:45:07.996Z,33.34
2019-06-27T13:47:37.128Z,33.18
2019-06-27T13:50:06.588Z,33.12
2019-06-27T13:52:35.753Z,33.09
2019-06-27T13:55:04.835Z,33.04
2019-06-27T13:57:33.976Z,33.01
2019-06-27T14:00:03.189Z,33.08
2019-06-27T14:02:32.344Z,33.11
2019-06-27T14:05:01.824Z,33.11
2019-06-27T14:07:31.098Z,32.95
2019-06-27T14:10:00.190Z,32.93
2019-06-27T14:12:30.145Z,32.98
2019-06-27T14:15:00.507Z,32.99
2019-06-27T14:17:29.804Z,32.94
2019-06-27T14:19:59.027Z,32.85
2019-06-27T14:22:33.315Z,32.90
2019-06-27T14:24:59.087Z,32.92
2019-06-27T14:27:28.372Z,32.86
2019-06-27T14:29:57.636Z,32.86
2019-06-27T14:32:26.763Z,32.94
2019-06-27T14:34:55.912Z,33.03
2019-06-27T14:37:26.702Z,33.11
2019-06-27T14:39:56.750Z,33.15
2019-06-27T14:42:25.996Z,33.22
2019-06-27T14:44:55.192Z,33.24
2019-06-27T14:47:24.463Z,33.23
2019-06-27T14:49:53.637Z,33.25
2019-06-27T14:52:22.839Z,33.28
2019-06-27T14:54:52.300Z,33.29
2019-06-27T14:57:21.548Z,33.22
2019-06-27T14:59:50.691Z,33.14
2019-06-27T15:02:19.808Z,33.15
2019-06-27T15:04:49.046Z,33.02
2019-06-27T15:07:18.216Z,32.90
2019-06-27T15:09:47.345Z,32.89
2019-06-27T15:12:16.528Z,32.88
2019-06-27T15:14:45.740Z,32.74
2019-06-27T15:17:14.838Z,32.68
2019-06-27T15:19:44.044Z,32.60
2019-06-27T15:22:13.193Z,32.44
2019-06-27T15:24:42.438Z,32.28
2019-06-27T15:27:11.744Z,32.24
2019-06-27T15:29:40.967Z,32.25
2019-06-27T15:32:10.156Z,32.34
2019-06-27T15:34:39.335Z,32.37
2019-06-27T15:37:08.575Z,32.42
2019-06-27T15:39:37.698Z,32.44
2019-06-27T15:42:06.874Z,32.40
2019-06-27T15:44:36.214Z,32.43
2019-06-27T15:47:05.334Z,32.47
2019-06-27T15:49:34.526Z,32.41
2019-06-27T15:52:03.636Z,32.41
2019-06-27T15:54:32.733Z,32.41
2019-06-27T15:57:01.839Z,32.40
2019-06-27T15:59:31.031Z,32.40
2019-06-27T16:02:00.213Z,32.35
2019-06-27T16:04:34.230Z,32.31
2019-06-27T16:07:00.311Z,32.28
2019-06-27T16:09:29.525Z,32.24
2019-06-27T16:11:58.776Z,32.23
2019-06-27T16:14:27.929Z,32.24
2019-06-27T16:16:57.153Z,32.25
2019-06-27T16:19:26.443Z,32.24
2019-06-27T16:21:55.577Z,32.18
2019-06-27T16:24:24.666Z,32.19
2019-06-27T16:26:53.752Z,32.13
2019-06-27T16:29:24.680Z,32.08
2019-06-27T16:31:53.938Z,32.05
2019-06-27T16:34:23.197Z,31.93
2019-06-27T16:36:52.340Z,31.87
2019-06-27T16:39:21.517Z,31.84
2019-06-27T16:41:50.758Z,31.84
2019-06-27T16:44:19.863Z,31.70
2019-06-27T16:46:49.026Z,31.64
2019-06-27T16:49:18.385Z,31.57
2019-06-27T16:51:47.468Z,31.56
2019-06-27T16:54:16.603Z,31.52
2019-06-27T16:56:45.730Z,31.51
2019-06-27T16:59:15.788Z,31.53
2019-06-27T17:01:45.000Z,31.48
2019-06-27T17:04:14.083Z,31.47
2019-06-27T17:06:43.175Z,31.42
2019-06-27T17:09:12.309Z,31.29
2019-06-27T17:11:41.441Z,31.29
2019-06-27T17:14:10.514Z,31.26
2019-06-27T17:16:39.619Z,31.26
2019-06-27T17:19:08.683Z,31.21
2019-06-27T17:21:38.051Z,31.13
2019-06-27T17:24:07.204Z,31.02
2019-06-27T17:26:36.325Z,30.96
2019-06-27T17:29:05.518Z,30.94
2019-06-27T17:31:34.726Z,30.95
2019-06-27T17:34:03.911Z,30.93
2019-06-27T17:36:33.027Z,30.92
2019-06-27T17:39:02.408Z,30.84
2019-06-27T17:41:31.721Z,30.81
2019-06-27T17:44:00.767Z,30.82
2019-06-27T17:46:29.883Z,30.81
2019-06-27T17:48:58.958Z,30.81
2019-06-27T17:51:28.190Z,30.79
2019-06-27T17:53:57.280Z,30.74
2019-06-27T17:56:26.392Z,30.74
2019-06-27T17:58:55.437Z,30.71
2019-06-27T18:01:24.680Z,30.67
2019-06-27T18:03:53.823Z,30.62
2019-06-27T18:06:23.084Z,30.59
2019-06-27T18:08:52.176Z,30.56
2019-06-27T18:11:21.282Z,30.51
2019-06-27T18:13:50.332Z,30.47
2019-06-27T18:16:19.472Z,30.42
2019-06-27T18:18:48.524Z,30.39
2019-06-27T18:21:17.719Z,30.35
2019-06-27T18:23:46.823Z,30.33
2019-06-27T18:26:18.085Z,30.26
2019-06-27T19:22:50.202Z,28.35
2019-06-27T19:25:27.676Z,28.18
2019-06-27T19:27:57.191Z,28.07
2019-06-27T19:30:26.647Z,27.98
2019-06-27T19:32:56.224Z,27.91
2019-06-27T19:35:25.697Z,27.81
2019-06-27T19:38:02.176Z,27.72
2019-06-27T19:40:26.360Z,27.62
2019-06-27T19:42:55.938Z,27.52
2019-06-27T19:45:25.207Z,27.43
2019-06-27T19:47:54.297Z,27.29
2019-06-27T19:50:23.537Z,27.18
2019-06-27T19:52:52.679Z,27.08
2019-06-27T19:55:23.810Z,27.00
2019-06-27T19:57:53.017Z,26.93
2019-06-27T20:00:22.641Z,26.82
2019-06-27T20:02:51.728Z,26.73
2019-06-27T20:05:20.876Z,26.64
2019-06-27T20:07:49.993Z,26.53
2019-06-27T20:10:19.135Z,26.46
2019-06-27T20:12:48.374Z,26.41
2019-06-27T20:15:17.509Z,26.37
2019-06-27T20:17:46.648Z,26.33
2019-06-27T20:20:15.808Z,26.24
2019-06-27T20:22:44.949Z,26.16
2019-06-27T20:25:16.846Z,26.07
2019-06-27T20:27:45.976Z,25.98
2019-06-27T20:30:15.081Z,25.92
2019-06-27T20:32:49.390Z,25.84
2019-06-27T20:35:18.569Z,25.77
2019-06-27T20:37:47.798Z,25.69
2019-06-27T20:40:17.039Z,25.67
2019-06-27T20:42:46.214Z,25.56
2019-06-27T20:45:16.594Z,25.53
2019-06-27T20:47:45.760Z,25.47
2019-06-27T20:50:15.143Z,25.43
2019-06-27T20:52:44.312Z,25.35
2019-06-27T20:55:13.464Z,25.31
2019-06-27T20:57:42.599Z,25.21
2019-06-27T21:00:11.759Z,25.14
2019-06-27T21:02:40.966Z,25.07
2019-06-27T21:05:10.162Z,24.98
2019-06-27T21:07:39.286Z,24.91
2019-06-27T21:10:09.108Z,24.81
2019-06-27T21:12:38.341Z,24.70
2019-06-27T21:15:07.562Z,24.64
2019-06-27T21:17:36.774Z,24.55
2019-06-27T21:20:06.509Z,24.46
2019-06-27T21:22:35.726Z,24.43
2019-06-27T21:25:05.065Z,24.36
2019-06-27T21:27:34.268Z,24.27
2019-06-27T21:30:03.485Z,24.21
2019-06-27T21:32:32.729Z,24.15
2019-06-27T21:35:02.040Z,24.07
2019-06-27T21:37:31.322Z,23.99
2019-06-27T21:40:00.498Z,23.95
2019-06-27T21:42:29.693Z,23.92
2019-06-27T21:44:58.759Z,23.87
2019-06-27T21:47:27.909Z,23.86
2019-06-27T21:49:57.186Z,23.82
2019-06-27T21:52:26.450Z,23.77
2019-06-27T21:54:55.554Z,23.75
2019-06-27T21:57:24.838Z,23.74
2019-06-27T21:59:54.008Z,23.72
2019-06-27T22:02:23.180Z,23.69
2019-06-27T22:04:52.314Z,23.68
2019-06-27T22:07:24.481Z,23.66
2019-06-27T22:09:53.623Z,23.64
2019-06-27T22:12:22.870Z,23.62
2019-06-27T22:14:51.979Z,23.62
2019-06-27T22:17:21.128Z,23.61
2019-06-27T22:19:50.230Z,23.60
2019-06-27T22:22:19.329Z,23.61
2019-06-27T22:24:48.460Z,23.55
2019-06-27T22:27:17.606Z,23.54
2019-06-27T22:29:46.689Z,23.50
2019-06-27T22:32:15.899Z,23.43
2019-06-27T22:34:45.001Z,23.38
2019-06-27T22:37:13.263Z,23.33
2019-06-27T22:39:59.919Z,23.25
2019-06-27T22:42:46.621Z,23.20
2019-06-27T22:45:33.415Z,23.13
2019-06-27T22:48:13.693Z,23.05
2019-06-27T22:51:03.038Z,22.95
2019-06-27T22:53:35.874Z,22.91
2019-06-27T22:56:05.081Z,22.86
2019-06-27T22:58:34.214Z,22.83
2019-06-27T23:01:04.473Z,22.82
2019-06-27T23:03:33.590Z,22.78
2019-06-27T23:06:02.808Z,22.73
2019-06-27T23:08:32.033Z,22.65
2019-06-27T23:11:01.159Z,22.61
2019-06-27T23:13:30.457Z,22.55
2019-06-27T23:15:59.574Z,22.54
2019-06-27T23:18:28.645Z,22.52
2019-06-27T23:20:57.782Z,22.45
2019-06-27T23:23:26.818Z,22.38
2019-06-27T23:25:55.960Z,22.30
2019-06-27T23:28:25.048Z,22.25
2019-06-27T23:30:54.060Z,22.22
2019-06-27T23:33:23.171Z,22.19
2019-06-27T23:35:52.212Z,22.17
2019-06-27T23:38:21.321Z,22.14
2019-06-27T23:40:50.440Z,22.08
2019-06-27T23:43:19.502Z,22.00
2019-06-27T23:45:48.561Z,21.92
2019-06-27T23:48:17.678Z,21.87
2019-06-27T23:50:46.764Z,21.84
2019-06-27T23:53:16.079Z,21.82
2019-06-27T23:55:45.242Z,21.80
2019-06-27T23:58:14.331Z,21.75
